Time;durP1;ratioP1;P1;durP2;ratioP2;P2;SDS_P1;SDS_P2;PMS_P1;PMS_P2;Temp;Humidity;BMP_temperature;BMP_pressure;BME280_temperature;BME280_humidity;BME280_pressure;Samples;Min_cycle;Max_cycle;Signal;HPM_P1;HPM_P2
2022/01/28 00:01:08;;;;;;;13.75;1.58;;;;;;;4.85;100.00;101086.41;5208558;28;20051;-78
2022/01/28 00:03:39;;;;;;;9.77;1.40;;;;;;;4.84;100.00;101097.63;5211168;28;20273;-78
2022/01/28 00:06:10;;;;;;;13.80;1.50;;;;;;;4.89;100.00;101103.66;5213188;28;20021;-79
2022/01/28 00:08:40;;;;;;;10.48;1.67;;;;;;;4.81;100.00;101095.03;5213149;28;20026;-79
2022/01/28 00:11:11;;;;;;;9.40;1.40;;;;;;;4.83;100.00;101102.81;5216038;28;20395;-79
2022/01/28 00:13:42;;;;;;;11.45;1.88;;;;;;;4.85;100.00;101114.91;5223425;28;20025;-79
2022/01/28 00:38:13;;;;;;;16.40;1.70;;;;;;;4.76;100.00;101133.03;5214070;28;20067;-79
2022/01/28 00:40:43;;;;;;;10.27;1.67;;;;;;;4.73;100.00;101143.41;5214658;28;20030;-78
2022/01/28 00:43:13;;;;;;;13.38;1.83;;;;;;;4.80;100.00;101147.69;5212074;28;20021;-78
2022/01/28 00:45:44;;;;;;;11.57;1.60;;;;;;;4.74;100.00;101155.50;5212585;28;20109;-79
2022/01/28 00:48:14;;;;;;;23.23;2.17;;;;;;;4.73;100.00;101158.06;5211168;28;20021;-78
2022/01/28 00:50:45;;;;;;;19.08;1.98;;;;;;;4.69;100.00;101162.41;5211978;28;20022;-78
2022/01/28 00:53:15;;;;;;;16.38;1.90;;;;;;;4.66;100.00;101172.75;5213448;28;20022;-79
2022/01/28 00:55:45;;;;;;;17.27;2.10;;;;;;;4.69;100.00;101182.25;5212285;28;20121;-78
2022/01/28 00:58:16;;;;;;;16.40;1.80;;;;;;;4.75;100.00;101188.28;5212272;28;20157;-79
2022/01/28 01:00:47;;;;;;;13.43;1.67;;;;;;;4.71;100.00;101190.88;5212435;28;20021;-78
2022/01/28 01:03:17;;;;;;;18.35;1.85;;;;;;;4.72;100.00;101188.28;5214690;28;20025;-80
2022/01/28 01:05:47;;;;;;;16.27;2.85;;;;;;;4.80;100.00;101183.94;5215072;28;20037;-78
2022/01/28 01:08:18;;;;;;;15.15;2.72;;;;;;;4.72;100.00;101187.41;5216423;28;20025;-78
2022/01/28 01:10:50;;;;;;;13.07;2.22;;;;;;;4.74;100.00;101189.16;5209969;28;20052;-78
2022/01/28 01:13:30;;;;;;;15.55;1.75;;;;;;;4.69;100.00;101188.31;5215034;28;20296;-79
2022/01/28 01:16:01;;;;;;;13.48;1.52;;;;;;;4.62;100.00;101178.81;5204402;28;20037;-79
2022/01/28 01:18:50;;;;;;;16.88;2.17;;;;;;;4.65;100.00;101163.25;5214390;28;20032;-78
2022/01/28 01:21:24;;;;;;;10.07;1.83;;;;;;;4.72;100.00;101185.69;5208528;28;20097;-79
2022/01/28 01:23:56;;;;;;;15.73;1.90;;;;;;;4.70;100.00;101199.50;5212159;28;20667;-79
2022/01/28 01:26:31;;;;;;;12.45;1.48;;;;;;;4.76;100.00;101208.13;5222905;28;20682;-78
2022/01/28 01:29:06;;;;;;;8.98;1.80;;;;;;;4.79;100.00;101215.88;5219211;28;20021;-78
2022/01/28 01:31:40;;;;;;;18.73;2.43;;;;;;;4.79;100.00;101210.69;5207899;28;20029;-79
2022/01/28 01:34:16;;;;;;;13.00;1.58;;;;;;;4.84;100.00;101208.94;5215718;28;20033;-79
2022/01/28 01:36:46;;;;;;;12.68;2.13;;;;;;;4.80;100.00;101222.78;5223217;28;20149;-78
2022/01/28 01:39:24;;;;;;;12.43;1.83;;;;;;;4.84;100.00;101221.91;5222750;28;20052;-79
2022/01/28 01:42:10;;;;;;;17.25;2.10;;;;;;;4.84;100.00;101224.47;5218275;28;20099;-77
2022/01/28 01:53:00;;;;;;;11.60;1.90;;;;;;;4.85;100.00;101231.41;5216418;28;20087;-78
2022/01/28 01:55:31;;;;;;;20.15;2.00;;;;;;;4.83;100.00;101225.34;5225202;28;20030;-79
2022/01/28 01:58:02;;;;;;;21.52;2.72;;;;;;;4.86;100.00;101233.13;5222632;28;20036;-79
2022/01/28 02:00:32;;;;;;;15.02;2.00;;;;;;;4.84;100.00;101239.19;5217837;28;20029;-78
2022/01/28 02:03:02;;;;;;;16.23;2.20;;;;;;;4.87;100.00;101233.97;5218183;28;20486;-78
2022/01/28 02:05:33;;;;;;;12.52;1.80;;;;;;;4.92;100.00;101227.94;5222589;28;20036;-78
2022/01/28 02:08:06;;;;;;;16.83;1.80;;;;;;;4.98;100.00;101233.09;5222265;28;20017;-78
2022/01/28 02:10:36;;;;;;;15.60;2.22;;;;;;;4.90;100.00;101234.84;5222192;28;20033;-78
2022/01/28 02:13:07;;;;;;;21.13;2.65;;;;;;;4.89;100.00;101233.13;5222706;28;20032;-79
2022/01/28 02:15:37;;;;;;;14.05;2.03;;;;;;;4.95;100.00;101240.88;5222640;28;20032;-78
2022/01/28 02:18:07;;;;;;;12.10;2.17;;;;;;;4.94;100.00;101241.75;5222544;28;20025;-79
2022/01/28 02:20:42;;;;;;;22.70;2.35;;;;;;;4.92;100.00;101246.06;5219305;28;20033;-78
2022/01/28 02:23:12;;;;;;;22.08;2.30;;;;;;;4.90;100.00;101247.78;5214032;28;20033;-78
2022/01/28 02:25:43;;;;;;;18.05;2.25;;;;;;;4.91;100.00;101243.47;5215375;28;20044;-78
2022/01/28 02:28:18;;;;;;;20.67;2.55;;;;;;;4.93;100.00;101260.72;5214284;28;20478;-78
2022/01/28 02:30:48;;;;;;;17.03;2.40;;;;;;;4.89;100.00;101269.38;5213298;28;20037;-78
2022/01/28 02:33:21;;;;;;;13.75;2.05;;;;;;;4.88;100.00;101277.13;5207446;28;20040;-78
2022/01/28 02:35:52;;;;;;;16.00;2.42;;;;;;;4.89;100.00;101273.69;5209085;28;20036;-78
2022/01/28 02:38:24;;;;;;;13.63;1.98;;;;;;;4.80;100.00;101282.31;5214677;28;20029;-78
2022/01/28 02:40:59;;;;;;;11.05;1.90;;;;;;;4.71;100.00;101289.25;5219202;28;20489;-78
2022/01/28 02:43:37;;;;;;;17.77;2.17;;;;;;;4.66;100.00;101289.22;5199301;28;20501;-78
2022/01/28 02:46:11;;;;;;;21.27;2.17;;;;;;;4.64;100.00;101283.19;5214563;28;20021;-78
2022/01/28 02:48:53;;;;;;;14.65;1.95;;;;;;;4.67;100.00;101285.78;5213903;28;20027;-79
2022/01/28 02:51:23;;;;;;;14.75;1.98;;;;;;;4.71;100.00;101284.94;5211565;28;20033;-78
2022/01/28 02:53:57;;;;;;;10.77;1.90;;;;;;;4.72;100.00;101286.66;5214235;28;20071;-78
2022/01/28 02:59:03;;;;;;;13.27;1.90;;;;;;;4.70;100.00;101303.03;5214660;28;20104;-78
2022/01/28 03:01:33;;;;;;;14.82;2.38;;;;;;;4.70;100.00;101293.56;5208725;28;20037;-78
2022/01/28 03:04:05;;;;;;;15.43;2.30;;;;;;;4.65;100.00;101299.59;5209542;28;20052;-78
2022/01/28 03:06:36;;;;;;;16.10;1.80;;;;;;;4.64;100.00;101295.28;5213036;28;20022;-78
2022/01/28 03:09:17;;;;;;;14.23;1.77;;;;;;;4.67;100.00;101295.28;5214233;28;20021;-79
2022/01/28 03:12:34;;;;;;;15.50;2.15;;;;;;;4.65;100.00;101305.63;5244349;22;20049;-79
2022/01/28 03:15:03;;;;;;;11.85;1.70;;;;;;;4.67;100.00;101309.06;5195124;28;20252;-79
2022/01/28 03:20:31;;;;;;;10.38;2.25;;;;;;;4.76;100.00;101314.25;5203737;28;20029;-79
2022/01/28 03:22:56;;;;;;;17.25;1.92;;;;;;;4.74;100.00;101328.94;5203486;28;20053;-79
2022/01/28 03:25:27;;;;;;;18.52;2.42;;;;;;;4.75;100.00;101333.25;5204250;28;20324;-79
2022/01/28 03:27:59;;;;;;;17.63;2.25;;;;;;;4.77;100.00;101330.69;5205745;28;20056;-79
2022/01/28 03:30:29;;;;;;;17.10;2.33;;;;;;;4.73;100.00;101340.16;5206798;28;20396;-79
2022/01/28 03:33:00;;;;;;;17.98;2.55;;;;;;;4.70;100.00;101334.13;5207928;28;20044;-79
2022/01/28 03:35:33;;;;;;;19.45;2.33;;;;;;;4.74;100.00;101341.88;5204082;28;20071;-79
2022/01/28 03:38:07;;;;;;;14.43;2.03;;;;;;;4.75;100.00;101342.72;5203265;28;20033;-79
2022/01/28 03:40:37;;;;;;;15.23;1.90;;;;;;;4.83;100.00;101349.63;5208022;28;20487;-79
2022/01/28 03:43:07;;;;;;;17.38;1.85;;;;;;;4.89;100.00;101347.06;5208050;28;20075;-79
2022/01/28 03:45:38;;;;;;;13.45;2.05;;;;;;;4.89;100.00;101360.00;5208018;28;20021;-79
2022/01/28 03:48:08;;;;;;;16.20;2.20;;;;;;;4.90;100.00;101366.91;5207975;28;20037;-79
2022/01/28 03:50:38;;;;;;;12.35;2.15;;;;;;;4.89;100.00;101364.31;5207814;28;20260;-80
2022/01/28 03:53:10;;;;;;;14.30;2.55;;;;;;;4.86;100.00;101383.31;5207935;28;20029;-79
2022/01/28 03:55:40;;;;;;;13.27;1.60;;;;;;;4.85;100.00;101384.19;5207385;28;20033;-79
2022/01/28 03:58:10;;;;;;;14.32;2.22;;;;;;;4.77;100.00;101395.41;5196889;28;20025;-79
2022/01/28 04:00:41;;;;;;;16.17;2.20;;;;;;;4.79;100.00;101402.28;5208440;28;20120;-78
2022/01/28 04:14:10;;;;;;;12.35;2.10;;;;;;;4.61;100.00;101443.69;5207857;28;20033;-78
2022/01/28 04:19:29;;;;;;;19.60;2.00;;;;;;;4.19;100.00;101443.56;5211175;28;20438;-77
2022/01/28 04:21:59;;;;;;;9.02;1.60;;;;;;;4.03;100.00;101439.19;5213761;28;20029;-78
2022/01/28 04:24:29;;;;;;;12.65;2.25;;;;;;;3.98;100.00;101445.19;5211071;28;20032;-79
2022/01/28 04:26:59;;;;;;;12.77;1.58;;;;;;;3.91;100.00;101443.41;5202883;28;20024;-79
2022/01/28 04:29:30;;;;;;;12.43;1.65;;;;;;;3.92;100.00;101451.19;5199991;28;20044;-79
2022/01/28 04:32:01;;;;;;;13.02;2.08;;;;;;;3.91;100.00;101446.88;5194579;28;20467;-79
2022/01/28 04:34:31;;;;;;;16.60;2.75;;;;;;;4.01;100.00;101453.84;5206511;28;20053;-80
2022/01/28 04:37:15;;;;;;;17.98;2.20;;;;;;;4.09;100.00;101441.78;5206115;28;20049;-79
2022/01/28 04:47:40;;;;;;;15.98;2.22;;;;;;;4.30;100.00;101456.53;5206384;28;20037;-79
2022/01/28 05:28:40;;;;;;;13.68;1.83;;;;;;;4.33;100.00;101529.84;5203849;28;20046;-79
2022/01/28 05:31:10;;;;;;;17.73;2.33;;;;;;;4.39;100.00;101535.06;5196418;28;20026;-79
2022/01/28 05:33:41;;;;;;;15.07;2.00;;;;;;;4.37;100.00;101531.59;5205541;28;20461;-78
2022/01/28 05:36:11;;;;;;;12.35;1.98;;;;;;;4.40;100.00;101525.56;5205837;28;20036;-80
2022/01/28 05:38:41;;;;;;;16.83;2.10;;;;;;;4.43;100.00;101531.63;5205860;28;20029;-80
2022/01/28 05:41:11;;;;;;;12.95;1.85;;;;;;;4.43;100.00;101533.38;5205711;28;20033;-79
2022/01/28 05:43:42;;;;;;;16.50;2.15;;;;;;;4.37;100.00;101543.66;5205029;28;20034;-79
2022/01/28 05:46:13;;;;;;;14.05;1.77;;;;;;;4.43;100.00;101551.47;5204391;28;20041;-79
2022/01/28 05:48:43;;;;;;;15.27;2.10;;;;;;;4.38;100.00;101551.44;5205251;28;20034;-79
2022/01/28 05:51:14;;;;;;;21.80;2.53;;;;;;;4.37;100.00;101562.66;5203675;28;20098;-79
2022/01/28 05:53:44;;;;;;;12.07;1.73;;;;;;;4.43;100.00;101567.00;5204613;28;20025;-79
2022/01/28 05:56:14;;;;;;;18.40;2.15;;;;;;;4.35;100.00;101564.38;5185589;28;20067;-79
2022/01/28 05:58:45;;;;;;;17.15;1.95;;;;;;;4.38;100.00;101572.16;5204694;28;20044;-79
2022/01/28 06:01:15;;;;;;;11.88;1.88;;;;;;;4.30;100.00;101568.63;5188033;28;20108;-78
2022/01/28 06:03:47;;;;;;;15.30;1.80;;;;;;;4.28;100.00;101569.50;5205316;28;20116;-79
2022/01/28 06:06:20;;;;;;;12.15;2.33;;;;;;;4.21;100.00;101581.53;5205161;28;20037;-80
2022/01/28 06:08:52;;;;;;;11.15;1.48;;;;;;;4.12;100.00;101584.06;5202703;28;20392;-80
2022/01/28 06:11:23;;;;;;;10.82;1.77;;;;;;;4.09;100.00;101581.44;5187385;28;20037;-80
2022/01/28 06:13:54;;;;;;;10.23;1.67;;;;;;;4.08;100.00;101591.78;5205166;28;20032;-80
2022/01/28 06:16:24;;;;;;;8.13;1.77;;;;;;;4.00;100.00;101591.75;5205844;28;20487;-80
2022/01/28 06:18:54;;;;;;;12.38;1.98;;;;;;;4.01;100.00;101603.81;5205208;28;20160;-79
2022/01/28 06:21:24;;;;;;;11.52;2.40;;;;;;;3.93;100.00;101595.13;5205361;28;20063;-80
2022/01/28 06:23:55;;;;;;;22.70;2.08;;;;;;;3.88;100.00;101602.00;5206207;28;20076;-80
2022/01/28 06:26:26;;;;;;;12.80;1.80;;;;;;;3.88;100.00;101612.34;5207137;28;20036;-79
2022/01/28 06:28:56;;;;;;;18.13;2.53;;;;;;;3.95;100.00;101616.69;5208599;28;20040;-79
2022/01/28 06:31:27;;;;;;;10.05;1.70;;;;;;;3.92;100.00;101616.66;5207539;28;20079;-79
2022/01/28 06:33:57;;;;;;;13.43;1.95;;;;;;;3.88;100.00;101633.03;5205309;28;20351;-79
2022/01/28 06:36:27;;;;;;;16.40;2.10;;;;;;;3.91;100.00;101635.63;5206920;28;20132;-78
2022/01/28 06:38:58;;;;;;;15.30;2.17;;;;;;;3.95;100.00;101626.19;5205206;28;20026;-79
2022/01/28 06:41:30;;;;;;;20.67;2.20;;;;;;;4.00;100.00;101640.00;5205070;28;20033;-80
2022/01/28 06:44:01;;;;;;;13.57;1.50;;;;;;;4.05;100.00;101646.94;5206347;28;20102;-79
2022/01/28 06:46:31;;;;;;;15.48;2.08;;;;;;;4.00;100.00;101653.81;5207464;28;20108;-79
2022/01/28 06:49:01;;;;;;;14.68;1.98;;;;;;;4.02;100.00;101659.88;5204544;28;20114;-80
2022/01/28 06:51:34;;;;;;;13.95;1.98;;;;;;;4.06;100.00;101645.22;5205239;28;20071;-79
2022/01/28 06:54:04;;;;;;;14.00;1.55;;;;;;;4.01;100.00;101658.13;5206173;28;20064;-79
2022/01/28 06:56:35;;;;;;;8.25;1.50;;;;;;;4.01;100.00;101655.53;5206341;28;20025;-79
2022/01/28 06:59:05;;;;;;;13.90;2.03;;;;;;;4.03;100.00;101663.28;5206424;28;20025;-79
2022/01/28 07:01:36;;;;;;;10.23;1.83;;;;;;;4.00;100.00;101679.69;5206122;28;20410;-79
2022/01/28 07:04:06;;;;;;;16.85;2.05;;;;;;;4.02;100.00;101680.56;5205793;28;20091;-79
2022/01/28 07:06:36;;;;;;;14.13;2.17;;;;;;;4.05;100.00;101688.31;5206020;28;20033;-80
2022/01/28 07:09:08;;;;;;;13.35;1.65;;;;;;;4.11;100.00;101688.38;5206661;28;20037;-79
2022/01/28 07:11:38;;;;;;;11.63;1.75;;;;;;;4.15;100.00;101684.94;5205545;28;20025;-79
2022/01/28 07:14:09;;;;;;;14.80;2.33;;;;;;;4.13;100.00;101691.81;5207320;28;20461;-79
2022/01/28 07:16:39;;;;;;;9.43;1.60;;;;;;;4.10;100.00;101683.19;5205946;28;20029;-80
2022/01/28 07:19:09;;;;;;;16.65;2.10;;;;;;;4.06;100.00;101695.22;5208472;28;20160;-78
2022/01/28 07:21:40;;;;;;;12.05;1.80;;;;;;;4.04;100.00;101709.00;5210081;28;20029;-78
2022/01/28 07:24:10;;;;;;;11.95;1.92;;;;;;;4.02;100.00;101718.47;5209457;28;20048;-78
2022/01/28 07:26:40;;;;;;;16.33;2.35;;;;;;;4.09;100.00;101710.78;5209391;28;20033;-78
2022/01/28 07:29:12;;;;;;;12.48;1.92;;;;;;;4.12;100.00;101720.28;5210052;28;20036;-78
2022/01/28 07:31:43;;;;;;;16.33;2.53;;;;;;;4.14;100.00;101714.25;5209150;28;20104;-78
2022/01/28 07:34:14;;;;;;;19.20;2.08;;;;;;;4.09;100.00;101717.69;5207182;28;20045;-79
2022/01/28 07:36:44;;;;;;;9.43;1.63;;;;;;;4.08;100.00;101713.34;5198526;28;20495;-79
2022/01/28 07:39:14;;;;;;;9.45;1.50;;;;;;;4.04;100.00;101712.47;5206826;28;20557;-77
2022/01/28 07:41:45;;;;;;;15.40;2.35;;;;;;;4.08;100.00;101710.75;5211436;28;20451;-78
2022/01/28 07:44:15;;;;;;;13.98;2.03;;;;;;;4.05;100.00;101721.06;5211443;28;20467;-80
2022/01/28 07:46:46;;;;;;;16.85;2.92;;;;;;;4.10;100.00;101722.84;5200014;28;20032;-78
2022/01/28 07:49:16;;;;;;;13.82;1.98;;;;;;;4.20;100.00;101723.78;5210174;28;20490;-80
2022/01/28 07:51:46;;;;;;;16.60;2.30;;;;;;;4.21;100.00;101729.00;5208356;28;20047;-78
2022/01/28 07:54:17;;;;;;;17.45;2.42;;;;;;;4.17;100.00;101737.59;5210529;28;20034;-78
2022/01/28 07:56:52;;;;;;;19.40;2.20;;;;;;;4.23;100.00;101731.56;5208942;28;20109;-78
2022/01/28 07:59:22;;;;;;;8.25;1.45;;;;;;;4.25;100.00;101735.03;5209998;28;20088;-78
2022/01/28 08:01:52;;;;;;;15.38;2.25;;;;;;;4.38;100.00;101740.34;5210656;28;20037;-81
2022/01/28 08:04:23;;;;;;;22.95;2.38;;;;;;;4.40;100.00;101751.56;5209976;28;20034;-79
2022/01/28 08:06:53;;;;;;;14.35;2.13;;;;;;;4.47;100.00;101753.34;5210704;28;20582;-79
2022/01/28 08:09:23;;;;;;;17.60;1.95;;;;;;;4.43;100.00;101764.53;5209366;28;20124;-78
2022/01/28 08:11:53;;;;;;;15.23;2.05;;;;;;;4.47;100.00;101768.03;5208348;28;20072;-79
2022/01/28 08:14:24;;;;;;;21.23;2.50;;;;;;;4.43;100.00;101774.88;5210491;28;20995;-80
2022/01/28 08:16:55;;;;;;;12.60;1.92;;;;;;;4.54;100.00;101780.16;5214776;28;20067;-80
2022/01/28 08:19:26;;;;;;;15.80;2.47;;;;;;;4.60;100.00;101782.81;5204799;28;20516;-79
2022/01/28 08:21:56;;;;;;;16.52;2.15;;;;;;;4.54;100.00;101793.97;5213878;28;20097;-78
2022/01/28 08:24:26;;;;;;;14.82;3.00;;;;;;;4.57;100.00;101785.34;5213919;28;20059;-78
2022/01/28 08:26:56;;;;;;;20.17;2.40;;;;;;;4.55;100.00;101805.16;5211953;28;20086;-80
2022/01/28 08:29:27;;;;;;;15.80;2.45;;;;;;;4.56;100.00;101807.78;5213581;28;20025;-78
2022/01/28 08:31:57;;;;;;;20.38;3.25;;;;;;;4.57;100.00;101814.69;5211406;28;20029;-79
2022/01/28 08:34:27;;;;;;;13.80;2.60;;;;;;;4.61;100.00;101813.84;5210759;28;20029;-80
2022/01/28 08:37:03;;;;;;;12.30;1.90;;;;;;;4.70;100.00;101821.72;5211054;28;20024;-78
2022/01/28 08:39:36;;;;;;;15.88;2.47;;;;;;;4.70;100.00;101821.72;5209557;28;20025;-79
2022/01/28 08:42:07;;;;;;;17.58;2.33;;;;;;;4.73;100.00;101823.44;5207898;28;20087;-78
2022/01/28 08:44:37;;;;;;;17.15;2.58;;;;;;;4.65;100.00;101828.56;5211066;28;20025;-79
2022/01/28 08:47:07;;;;;;;16.42;2.10;;;;;;;4.69;100.00;101829.47;5213303;28;20017;-79
2022/01/28 08:49:37;;;;;;;20.40;2.50;;;;;;;4.76;100.00;101836.41;5203656;28;20056;-79
2022/01/28 08:52:08;;;;;;;18.45;3.03;;;;;;;4.75;100.00;101847.63;5213578;28;20624;-78
2022/01/28 08:54:38;;;;;;;15.02;2.58;;;;;;;4.71;100.00;101853.63;5212850;28;20067;-79
2022/01/28 08:57:09;;;;;;;14.82;2.88;;;;;;;4.73;100.00;101857.97;5213727;28;20044;-79
2022/01/28 08:59:40;;;;;;;18.15;3.20;;;;;;;4.74;100.00;101866.59;5213237;28;20115;-78
2022/01/28 09:02:10;;;;;;;18.08;3.53;;;;;;;4.77;100.00;101864.06;5213488;28;20107;-80
2022/01/28 09:04:41;;;;;;;16.73;3.53;;;;;;;4.79;100.00;101862.34;5212195;28;20027;-79
2022/01/28 09:07:11;;;;;;;17.27;3.22;;;;;;;4.76;100.00;101883.91;5197544;28;20116;-79
2022/01/28 09:09:48;;;;;;;17.23;4.00;;;;;;;4.80;100.00;101885.66;5208254;28;20036;-79
2022/01/28 09:15:24;;;;;;;16.77;3.60;;;;;;;4.86;100.00;101888.31;5135903;28;20485;-82
2022/01/28 09:17:55;;;;;;;17.08;2.80;;;;;;;4.85;99.28;101896.06;5207266;28;20044;-83
2022/01/28 09:20:27;;;;;;;24.15;6.10;;;;;;;4.94;99.64;101904.78;5225700;28;20024;-82
2022/01/28 09:22:59;;;;;;;17.85;2.47;;;;;;;4.96;99.40;101900.47;5198082;28;20048;-82
2022/01/28 09:25:30;;;;;;;18.33;3.55;;;;;;;5.03;98.94;101912.63;5196963;28;20208;-82
2022/01/28 09:28:01;;;;;;;13.88;2.63;;;;;;;4.93;97.74;101907.34;5194937;28;20029;-83
2022/01/28 09:30:32;;;;;;;16.98;3.15;;;;;;;5.06;97.67;101910.06;5206987;28;20091;-82
2022/01/28 09:33:03;;;;;;;14.68;3.00;;;;;;;5.06;97.03;101922.13;5207281;28;20035;-82
2022/01/28 09:35:34;;;;;;;20.75;3.72;;;;;;;5.10;95.20;101929.94;5196588;28;20029;-82
2022/01/28 09:38:04;;;;;;;12.70;2.67;;;;;;;5.18;94.45;101936.03;5207259;28;20510;-82
2022/01/28 09:40:35;;;;;;;18.75;3.15;;;;;;;5.21;94.95;101946.47;5207663;28;20017;-83
2022/01/28 09:43:07;;;;;;;20.00;2.88;;;;;;;5.23;96.00;101949.94;5207377;28;20080;-82
2022/01/28 09:45:38;;;;;;;20.73;3.13;;;;;;;5.29;96.13;101949.97;5206751;28;20022;-82
2022/01/28 09:48:10;;;;;;;20.40;3.00;;;;;;;5.36;96.53;101940.50;5195731;28;20033;-82
2022/01/28 09:50:41;;;;;;;16.58;2.65;;;;;;;5.42;95.93;101956.97;5196896;28;20025;-83
2022/01/28 09:53:16;;;;;;;21.30;3.25;;;;;;;5.51;95.77;101964.81;5206466;28;20413;-83
2022/01/28 09:55:47;;;;;;;21.70;3.58;;;;;;;5.52;95.59;101964.84;5191687;28;20040;-83
2022/01/28 09:58:18;;;;;;;12.18;2.28;;;;;;;5.54;95.27;101967.44;5206286;28;20044;-82
2022/01/28 10:00:48;;;;;;;19.27;2.70;;;;;;;5.54;94.74;101972.63;5206474;28;20032;-83
2022/01/28 10:03:19;;;;;;;25.55;2.97;;;;;;;5.61;94.27;101979.59;5206568;28;20017;-82
2022/01/28 10:05:51;;;;;;;24.25;3.53;;;;;;;5.64;94.13;101974.41;5197487;28;20021;-82
2022/01/28 10:08:24;;;;;;;23.27;4.13;;;;;;;5.64;93.49;101975.28;5194179;28;20017;-82
2022/01/28 10:11:03;;;;;;;28.75;8.23;;;;;;;5.78;94.03;101972.78;5205908;28;20391;-82
2022/01/28 10:13:42;;;;;;;25.98;3.30;;;;;;;5.73;92.95;101974.50;5196729;28;20041;-82
2022/01/28 10:16:21;;;;;;;14.07;3.00;;;;;;;5.72;93.03;101975.34;5206841;28;20438;-82
2022/01/28 10:18:54;;;;;;;20.85;2.35;;;;;;;5.70;92.27;101979.63;5194984;28;20021;-82
2022/01/28 10:21:30;;;;;;;13.48;2.10;;;;;;;5.79;93.70;101984.94;5207286;28;20025;-82
2022/01/28 10:24:11;;;;;;;17.95;2.50;;;;;;;5.75;92.75;101983.16;5197877;28;20021;-82
2022/01/28 10:26:49;;;;;;;15.63;2.70;;;;;;;5.92;91.44;101976.38;5196822;28;20125;-82
2022/01/28 10:29:24;;;;;;;20.25;2.53;;;;;;;5.98;90.03;101966.00;5193990;28;20487;-80
2022/01/28 10:32:05;;;;;;;19.80;2.70;;;;;;;6.04;88.99;101968.63;5206018;28;20081;-82
2022/01/28 10:34:45;;;;;;;19.73;2.95;;;;;;;6.05;87.46;101972.97;5192338;28;20116;-78
2022/01/28 10:37:29;;;;;;;15.73;2.55;;;;;;;5.96;88.55;101989.38;5181408;28;20029;-82
2022/01/28 10:40:07;;;;;;;19.50;2.70;;;;;;;6.03;88.66;101983.34;5190080;28;20017;-83
2022/01/28 10:42:41;;;;;;;19.45;2.67;;;;;;;6.13;87.51;101989.44;5189215;28;20520;-83
2022/01/28 10:45:14;;;;;;;18.33;2.53;;;;;;;6.18;85.80;101985.13;5190878;28;20025;-79
2022/01/28 10:47:46;;;;;;;22.92;3.08;;;;;;;6.13;83.78;101977.34;5204853;28;20029;-82
2022/01/28 10:50:31;;;;;;;18.80;2.50;;;;;;;6.22;85.31;101986.91;5195466;28;20439;-80
2022/01/28 10:53:09;;;;;;;18.27;2.50;;;;;;;6.13;84.24;101979.06;5191788;28;20061;-83
2022/01/28 10:55:54;;;;;;;18.75;2.72;;;;;;;6.31;84.06;101984.34;5195633;28;20506;-81
2022/01/28 10:58:26;;;;;;;21.17;3.17;;;;;;;6.25;83.83;101979.13;5204215;28;20028;-83
2022/01/28 11:00:58;;;;;;;14.82;2.85;;;;;;;6.19;83.30;101976.47;5206064;28;20608;-82
2022/01/28 11:03:28;;;;;;;18.27;2.40;;;;;;;6.23;83.44;101973.06;5204280;28;20399;-80
2022/01/28 11:06:01;;;;;;;15.45;2.65;;;;;;;6.13;82.48;101974.75;5189341;28;20021;-83
2022/01/28 11:08:32;;;;;;;19.35;2.05;;;;;;;6.07;81.84;101979.03;5186769;28;20036;-81
2022/01/28 11:11:02;;;;;;;15.13;2.88;;;;;;;5.94;82.15;101974.63;5192749;28;20045;-79
2022/01/28 11:13:33;;;;;;;16.08;2.53;;;;;;;6.10;82.62;101977.31;5194467;28;20064;-80
2022/01/28 11:16:04;;;;;;;14.32;1.98;;;;;;;6.04;81.29;101986.78;5190975;28;20021;-82
2022/01/28 11:18:35;;;;;;;13.27;2.10;;;;;;;5.95;80.94;101994.53;5194824;28;20087;-79
2022/01/28 11:21:13;;;;;;;18.15;2.50;;;;;;;5.94;82.17;101995.41;5197133;28;20124;-82
2022/01/28 11:23:52;;;;;;;10.75;1.77;;;;;;;6.05;82.85;101999.78;5204772;28;20025;-81
2022/01/28 11:26:34;;;;;;;18.45;2.30;;;;;;;6.21;84.02;101992.94;5184598;28;20033;-82
2022/01/28 11:29:17;;;;;;;12.63;2.00;;;;;;;6.22;82.08;101992.94;5204386;28;20032;-82
2022/01/28 11:31:51;;;;;;;13.27;2.50;;;;;;;6.37;82.19;102012.91;5182960;28;20414;-79
2022/01/28 11:34:33;;;;;;;16.38;2.90;;;;;;;6.31;81.92;102005.09;5204280;28;20039;-82
2022/01/28 11:37:03;;;;;;;16.27;2.05;;;;;;;6.40;81.87;101999.97;5189491;28;20029;-83
2022/01/28 11:39:38;;;;;;;14.30;2.40;;;;;;;6.48;80.86;101990.47;5184800;28;20040;-81
2022/01/28 11:42:25;;;;;;;11.40;2.35;;;;;;;6.51;80.93;101995.66;5188421;28;20315;-80
2022/01/28 11:44:59;;;;;;;17.80;2.05;;;;;;;6.54;80.25;101999.16;5188653;28;20049;-84
2022/01/28 11:47:32;;;;;;;15.02;2.55;;;;;;;6.70;80.34;102013.03;5189752;28;20039;-80
2022/01/28 11:50:16;;;;;;;17.00;2.58;;;;;;;6.84;79.49;102009.63;5192396;28;20398;-81
2022/01/28 11:52:50;;;;;;;15.27;2.42;;;;;;;6.93;78.77;102017.44;5192301;28;20057;-81
2022/01/28 11:55:26;;;;;;;11.35;2.05;;;;;;;6.96;78.37;102021.78;5207736;28;20025;-82
2022/01/28 11:57:59;;;;;;;17.02;2.47;;;;;;;6.67;78.28;102021.72;5193244;28;20028;-81
2022/01/28 12:00:35;;;;;;;13.20;2.30;;;;;;;6.47;78.99;102022.47;5201519;28;20379;-83
2022/01/28 12:03:23;;;;;;;14.55;2.38;;;;;;;6.43;79.31;102031.97;5208442;28;20060;-82
2022/01/28 12:05:56;;;;;;;20.48;2.50;;;;;;;6.39;79.47;102019.00;5205708;28;20034;-82
2022/01/28 12:08:31;;;;;;;14.60;2.13;;;;;;;6.46;79.02;102021.59;5195945;28;20100;-81
2022/01/28 12:11:06;;;;;;;14.73;2.08;;;;;;;6.37;79.14;102024.19;5192250;28;20036;-83
2022/01/28 12:14:02;;;;;;;10.88;1.90;;;;;;;6.34;78.75;102012.91;5208351;28;20827;-82
2022/01/28 12:16:40;;;;;;;12.13;1.83;;;;;;;6.40;79.83;102019.00;5199693;28;20068;-83
2022/01/28 12:19:19;;;;;;;16.58;2.40;;;;;;;6.42;78.97;102019.00;5198765;28;20026;-82
2022/01/28 12:22:04;;;;;;;14.10;2.10;;;;;;;6.50;79.41;102036.38;5196425;28;20029;-81
2022/01/28 12:24:37;;;;;;;17.65;2.28;;;;;;;6.57;80.02;102032.91;5197815;28;20022;-82
2022/01/28 12:27:13;;;;;;;14.73;2.15;;;;;;;6.66;79.76;102032.97;5195036;28;20474;-82
2022/01/28 12:29:47;;;;;;;;;;;;;;;6.73;80.29;102045.09;5197515;28;20029;-82
2022/01/28 12:32:22;;;;;;;15.40;1.88;;;;;;;6.71;79.85;102058.94;5190181;28;19923;-82
2022/01/28 12:34:53;;;;;;;11.50;2.10;;;;;;;6.62;80.74;102056.31;5198365;28;20041;-80
2022/01/28 12:37:24;;;;;;;14.85;2.40;;;;;;;6.52;80.70;102059.72;5194647;28;20091;-79
2022/01/28 12:39:59;;;;;;;20.63;2.58;;;;;;;6.57;80.80;102061.47;5193686;28;20469;-82
2022/01/28 12:42:32;;;;;;;20.60;2.53;;;;;;;6.57;81.20;102064.09;5197035;28;20116;-79
2022/01/28 12:45:03;;;;;;;16.42;2.92;;;;;;;6.57;80.66;102056.28;5207539;28;20069;-82
2022/01/28 12:47:34;;;;;;;17.35;2.72;;;;;;;6.53;79.38;102062.34;5197415;28;20436;-80
2022/01/28 12:50:05;;;;;;;9.93;2.08;;;;;;;6.56;79.70;102046.75;5207069;28;20258;-81
2022/01/28 12:52:35;;;;;;;11.23;1.65;;;;;;;6.60;78.60;102058.91;5206428;28;20382;-79
2022/01/28 12:55:06;;;;;;;17.52;2.53;;;;;;;6.62;78.09;102051.13;5205067;28;20059;-81
2022/01/28 12:57:42;;;;;;;13.52;2.42;;;;;;;6.54;78.28;102068.38;5206097;28;20425;-81
2022/01/28 13:00:14;;;;;;;16.90;2.13;;;;;;;6.55;79.17;102075.31;5188590;28;20483;-82
2022/01/28 13:02:49;;;;;;;16.52;2.05;;;;;;;6.51;78.40;102060.59;5206515;28;20036;-82
2022/01/28 13:05:36;;;;;;;10.35;1.90;;;;;;;6.37;78.96;102062.25;5191377;28;20025;-79
2022/01/28 13:08:25;;;;;;;24.45;7.22;;;;;;;6.33;79.48;102056.19;5193029;28;20581;-83
2022/01/28 13:10:55;;;;;;;48.03;13.00;;;;;;;6.36;80.22;102057.91;5187600;28;20071;-80
2022/01/28 13:13:26;;;;;;;13.15;2.33;;;;;;;6.32;78.86;102053.56;5206531;28;20052;-80
2022/01/28 13:15:57;;;;;;;18.70;3.80;;;;;;;6.41;79.27;102053.63;5189024;28;20021;-80
2022/01/28 13:18:28;;;;;;;23.52;5.80;;;;;;;6.44;79.16;102048.44;5191829;28;20136;-80
2022/01/28 13:20:59;;;;;;;17.52;3.25;;;;;;;6.45;79.14;102040.66;5205453;28;20025;-81
2022/01/28 13:23:34;;;;;;;15.55;2.13;;;;;;;6.45;78.20;102051.03;5188719;28;20093;-82